Rachel — D5CG4 — position and weather

sailwx.info

Track history (hours):
 
Tides and Currents Weather Stations Pressure Air Temp Water Temp Dewpoint Dewpoint Depression Visibility Wind Speed Wind Dir Waves Ship Positions

Rachel

Last reported at 2015-Jul-23 17:24 UTC. Time now 2015-Aug-03 13:06 UTC.
Position N 01°16' E 104°10'.
Warning: this ship's position is 10 days out of date.

Length 189 m; draft 6.7 m.

Type: Cargo ship. MMSI: 636015692.

Date/timePositionNaut miles runAvg speedWind from/ knotsBaromVisibWave heightAir tempDewpointWater temp
2015-Jul-23 17:24N 01°16' E 104°10'910.9
2015-Jul-23 16:33N 01°16' E 104°01'2 2.0
2015-Jul-23 15:17N 01°17' E 103°58'0 0.0
2015-Jul-23 14:23N 01°17' E 103°58'0 0.0
2015-Jul-23 13:11N 01°17' E 103°58'0 0.0
2015-Jul-23 12:23N 01°17' E 103°58'0 0.0
2015-Jul-23 11:32N 01°17' E 103°58'0 0.0
2015-Jul-23 10:17N 01°17' E 103°58'0 0.0
2015-Jul-23 09:29N 01°17' E 103°58'0 0.0
2015-Jul-23 08:11N 01°17' E 103°58'0 0.0
2015-Jul-23 07:29N 01°17' E 103°58'0 0.0
2015-Jul-23 06:29N 01°17' E 103°58'0 0.1
2015-Jul-23 05:23N 01°17' E 103°58'0 0.1
2015-Jul-23 04:32N 01°17' E 103°58'0 0.1
2015-Jul-23 03:32N 01°17' E 103°58'0 0.1
2015-Jul-23 02:29N 01°17' E 103°58'0 0.0
2015-Jul-23 01:23N 01°17' E 103°58'0 0.0
2015-Jul-23 00:32N 01°17' E 103°58'0 0.1
2015-Jul-22 23:23N 01°17' E 103°58'0 0.0
2015-Jul-22 22:32N 01°17' E 103°58'0 0.0
2015-Jul-22 21:29N 01°17' E 103°58'0 0.1
2015-Jul-22 20:32N 01°17' E 103°58'0 0.1
2015-Jul-22 19:23N 01°17' E 103°58'0 0.0
2015-Jul-22 18:32N 01°17' E 103°58'0 0.0
2015-Jul-22 17:11N 01°17' E 103°58'0 0.0
2015-Jul-22 16:29N 01°17' E 103°58'0 0.0
2015-Jul-22 15:32N 01°17' E 103°58'0 0.0
2015-Jul-22 14:32N 01°17' E 103°58'2 1.9
2015-Jul-22 13:33N 01°15' E 103°57'6 5.8
2015-Jul-22 12:31N 01°12' E 103°52'134 9.5
2015-Jul-21 22:28N 02°13' E 101°53'18 9.3
2015-Jul-21 20:33N 02°24' E 101°39'18 9.2
2015-Jul-21 18:33N 02°35' E 101°24'10 9.8
2015-Jul-21 17:33N 02°40' E 101°16'2110.3
2015-Jul-21 15:33N 02°50' E 100°58'2210.8
2015-Jul-21 13:33N 03°04' E 100°42'  
Track history (hours):
 
Tides and Currents Weather Stations Pressure Air Temp Water Temp Dewpoint Dewpoint Depression Visibility Wind Speed Wind Dir Waves Ship Positions

Rachel

Last reported at 2015-Jul-23 17:24 UTC. Time now 2015-Aug-03 13:06 UTC.
Position N 01°16' E 104°10'.
Warning: this ship's position is 10 days out of date.

Length 189 m; draft 6.7 m.

Type: Cargo ship. MMSI: 636015692.

Date/timePositionNaut miles runAvg speedWind from/ knotsBaromVisibWave heightAir tempDewpointWater temp
2015-Jul-23 17:24N 01°16' E 104°10'910.9
2015-Jul-23 16:33N 01°16' E 104°01'2 2.0
2015-Jul-23 15:17N 01°17' E 103°58'0 0.0
2015-Jul-23 14:23N 01°17' E 103°58'0 0.0
2015-Jul-23 13:11N 01°17' E 103°58'0 0.0
2015-Jul-23 12:23N 01°17' E 103°58'0 0.0
2015-Jul-23 11:32N 01°17' E 103°58'0 0.0
2015-Jul-23 10:17N 01°17' E 103°58'0 0.0
2015-Jul-23 09:29N 01°17' E 103°58'0 0.0
2015-Jul-23 08:11N 01°17' E 103°58'0 0.0
2015-Jul-23 07:29N 01°17' E 103°58'0 0.0
2015-Jul-23 06:29N 01°17' E 103°58'0 0.1
2015-Jul-23 05:23N 01°17' E 103°58'0 0.1
2015-Jul-23 04:32N 01°17' E 103°58'0 0.1
2015-Jul-23 03:32N 01°17' E 103°58'0 0.1
2015-Jul-23 02:29N 01°17' E 103°58'0 0.0
2015-Jul-23 01:23N 01°17' E 103°58'0 0.0
2015-Jul-23 00:32N 01°17' E 103°58'0 0.1
2015-Jul-22 23:23N 01°17' E 103°58'0 0.0
2015-Jul-22 22:32N 01°17' E 103°58'0 0.0
2015-Jul-22 21:29N 01°17' E 103°58'0 0.1
2015-Jul-22 20:32N 01°17' E 103°58'0 0.1
2015-Jul-22 19:23N 01°17' E 103°58'0 0.0
2015-Jul-22 18:32N 01°17' E 103°58'0 0.0
2015-Jul-22 17:11N 01°17' E 103°58'0 0.0
2015-Jul-22 16:29N 01°17' E 103°58'0 0.0
2015-Jul-22 15:32N 01°17' E 103°58'0 0.0
2015-Jul-22 14:32N 01°17' E 103°58'2 1.9
2015-Jul-22 13:33N 01°15' E 103°57'6 5.8
2015-Jul-22 12:31N 01°12' E 103°52'134 9.5
2015-Jul-21 22:28N 02°13' E 101°53'18 9.3
2015-Jul-21 20:33N 02°24' E 101°39'18 9.2
2015-Jul-21 18:33N 02°35' E 101°24'10 9.8
2015-Jul-21 17:33N 02°40' E 101°16'2110.3
2015-Jul-21 15:33N 02°50' E 100°58'2210.8
2015-Jul-21 13:33N 03°04' E 100°42'  

Dump ship's entire track history